sensor_id;sensor_type;location;lat;lon;timestamp;pressure;altitude;pressure_sealevel;temperature;humidity
10806;BME280;5455;53.224;6.000;2023-04-10T00:00:02;102176.97;;;8.11;100.00
10806;BME280;5455;53.224;6.000;2023-04-10T00:02:30;102166.91;;;8.07;100.00
10806;BME280;5455;53.224;6.000;2023-04-10T00:05:00;102160.94;;;8.05;100.00
10806;BME280;5455;53.224;6.000;2023-04-10T00:07:28;102166.72;;;8.03;100.00
10806;BME280;5455;53.224;6.000;2023-04-10T00:09:55;102175.09;;;7.98;100.00
10806;BME280;5455;53.224;6.000;2023-04-10T00:12:22;102176.00;;;7.94;100.00
10806;BME280;5455;53.224;6.000;2023-04-10T00:14:49;102167.56;;;7.90;100.00
10806;BME280;5455;53.224;6.000;2023-04-10T00:17:16;102168.50;;;7.86;100.00
10806;BME280;5455;53.224;6.000;2023-04-10T00:19:43;102167.81;;;7.80;100.00
10806;BME280;5455;53.224;6.000;2023-04-10T00:22:10;102165.88;;;7.81;100.00
10806;BME280;5455;53.224;6.000;2023-04-10T00:24:37;102163.41;;;7.79;100.00
10806;BME280;5455;53.224;6.000;2023-04-10T00:27:03;102156.63;;;7.76;100.00
10806;BME280;5455;53.224;6.000;2023-04-10T00:29:31;102146.75;;;7.75;100.00
10806;BME280;5455;53.224;6.000;2023-04-10T00:31:57;102139.13;;;7.72;100.00
10806;BME280;5455;53.224;6.000;2023-04-10T00:34:25;102130.88;;;7.72;100.00
10806;BME280;5455;53.224;6.000;2023-04-10T00:36:52;102126.81;;;7.70;100.00
10806;BME280;5455;53.224;6.000;2023-04-10T00:39:19;102120.34;;;7.66;100.00
10806;BME280;5455;53.224;6.000;2023-04-10T00:41:46;102105.81;;;7.65;100.00
10806;BME280;5455;53.224;6.000;2023-04-10T00:44:13;102106.31;;;7.67;100.00
10806;BME280;5455;53.224;6.000;2023-04-10T00:46:40;102100.53;;;7.69;100.00
10806;BME280;5455;53.224;6.000;2023-04-10T00:49:08;102101.13;;;7.66;100.00
10806;BME280;5455;53.224;6.000;2023-04-10T00:51:37;102106.91;;;7.64;100.00
10806;BME280;5455;53.224;6.000;2023-04-10T00:54:05;102095.44;;;7.62;100.00
10806;BME280;5455;53.224;6.000;2023-04-10T00:56:32;102101.22;;;7.61;100.00
10806;BME280;5455;53.224;6.000;2023-04-10T00:59:00;102096.56;;;7.61;100.00
10806;BME280;5455;53.224;6.000;2023-04-10T01:01:30;102093.31;;;7.59;100.00
10806;BME280;5455;53.224;6.000;2023-04-10T01:03:58;102087.63;;;7.56;100.00
10806;BME280;5455;53.224;6.000;2023-04-10T01:15:12;102075.25;;;7.45;100.00
10806;BME280;5455;53.224;6.000;2023-04-10T01:20:22;102077.28;;;7.39;100.00
10806;BME280;5455;53.224;6.000;2023-04-10T01:25:58;102049.75;;;7.31;100.00
10806;BME280;5455;53.224;6.000;2023-04-10T01:31:07;102057.78;;;7.27;100.00
10806;BME280;5455;53.224;6.000;2023-04-10T01:33:41;102045.50;;;7.25;100.00
10806;BME280;5455;53.224;6.000;2023-04-10T01:36:12;102041.94;;;7.24;100.00
10806;BME280;5455;53.224;6.000;2023-04-10T01:38:44;102039.53;;;7.22;100.00
10806;BME280;5455;53.224;6.000;2023-04-10T01:41:14;102041.78;;;7.20;100.00
10806;BME280;5455;53.224;6.000;2023-04-10T01:43:42;102041.78;;;7.20;100.00
10806;BME280;5455;53.224;6.000;2023-04-10T01:46:10;102039.94;;;7.16;100.00
10806;BME280;5455;53.224;6.000;2023-04-10T01:48:38;102040.75;;;7.16;100.00
10806;BME280;5455;53.224;6.000;2023-04-10T01:51:06;102035.88;;;7.13;100.00
10806;BME280;5455;53.224;6.000;2023-04-10T01:53:35;102042.66;;;7.16;100.00
10806;BME280;5455;53.224;6.000;2023-04-10T01:56:04;102038.28;;;7.15;100.00
10806;BME280;5455;53.224;6.000;2023-04-10T01:58:40;102038.13;;;7.11;100.00
10806;BME280;5455;53.224;6.000;2023-04-10T02:01:07;102034.84;;;7.09;100.00
10806;BME280;5455;53.224;6.000;2023-04-10T02:03:52;102032.44;;;7.08;100.00
10806;BME280;5455;53.224;6.000;2023-04-10T02:07:02;102039.84;;;7.07;100.00
10806;BME280;5455;53.224;6.000;2023-04-10T02:10:12;102025.94;;;7.04;100.00
10806;BME280;5455;53.224;6.000;2023-04-10T02:12:50;102019.13;;;7.01;100.00
10806;BME280;5455;53.224;6.000;2023-04-10T02:15:22;102020.25;;;7.00;100.00
10806;BME280;5455;53.224;6.000;2023-04-10T02:17:51;102013.97;;;7.00;100.00
10806;BME280;5455;53.224;6.000;2023-04-10T02:20:19;102012.34;;;6.99;100.00
10806;BME280;5455;53.224;6.000;2023-04-10T02:22:48;102009.09;;;6.97;100.00
10806;BME280;5455;53.224;6.000;2023-04-10T02:25:15;101997.00;;;6.98;100.00
10806;BME280;5455;53.224;6.000;2023-04-10T02:27:42;102007.47;;;6.96;100.00
10806;BME280;5455;53.224;6.000;2023-04-10T02:30:10;102005.31;;;6.93;100.00
10806;BME280;5455;53.224;6.000;2023-04-10T02:32:38;102002.88;;;6.91;100.00
10806;BME280;5455;53.224;6.000;2023-04-10T02:35:07;102005.94;;;6.90;100.00
10806;BME280;5455;53.224;6.000;2023-04-10T02:37:36;101999.97;;;6.88;100.00
10806;BME280;5455;53.224;6.000;2023-04-10T02:40:03;102000.47;;;6.90;100.00
10806;BME280;5455;53.224;6.000;2023-04-10T02:42:39;102010.94;;;6.88;100.00
10806;BME280;5455;53.224;6.000;2023-04-10T02:45:07;102006.84;;;6.85;100.00
10806;BME280;5455;53.224;6.000;2023-04-10T02:47:39;102003.00;;;6.86;100.00
10806;BME280;5455;53.224;6.000;2023-04-10T02:50:07;102003.31;;;6.85;100.00
10806;BME280;5455;53.224;6.000;2023-04-10T02:52:37;102002.28;;;6.81;100.00
10806;BME280;5455;53.224;6.000;2023-04-10T02:55:04;102002.28;;;6.81;100.00
10806;BME280;5455;53.224;6.000;2023-04-10T02:57:35;102001.25;;;6.77;100.00
10806;BME280;5455;53.224;6.000;2023-04-10T03:00:03;101998.31;;;6.73;100.00
10806;BME280;5455;53.224;6.000;2023-04-10T03:02:50;101996.41;;;6.74;100.00
10806;BME280;5455;53.224;6.000;2023-04-10T03:05:20;101990.41;;;6.72;100.00
10806;BME280;5455;53.224;6.000;2023-04-10T03:07:47;101995.41;;;6.70;100.00
10806;BME280;5455;53.224;6.000;2023-04-10T03:10:14;101996.00;;;6.67;100.00
10806;BME280;5455;53.224;6.000;2023-04-10T03:12:41;101999.25;;;6.69;100.00
10806;BME280;5455;53.224;6.000;2023-04-10T03:15:08;101996.78;;;6.67;100.00
10806;BME280;5455;53.224;6.000;2023-04-10T03:17:35;101997.94;;;6.66;100.00
10806;BME280;5455;53.224;6.000;2023-04-10T03:20:05;101991.63;;;6.65;100.00
10806;BME280;5455;53.224;6.000;2023-04-10T03:22:33;102003.19;;;6.62;100.00
10806;BME280;5455;53.224;6.000;2023-04-10T03:25:00;102001.56;;;6.61;100.00
10806;BME280;5455;53.224;6.000;2023-04-10T03:27:28;101995.09;;;6.57;100.00
10806;BME280;5455;53.224;6.000;2023-04-10T03:29:57;101989.91;;;6.56;100.00
10806;BME280;5455;53.224;6.000;2023-04-10T03:32:24;101988.09;;;6.51;100.00
10806;BME280;5455;53.224;6.000;2023-04-10T03:34:53;101985.63;;;6.50;100.00
10806;BME280;5455;53.224;6.000;2023-04-10T03:37:20;101984.81;;;6.49;100.00
10806;BME280;5455;53.224;6.000;2023-04-10T03:39:47;101982.69;;;6.46;100.00
10806;BME280;5455;53.224;6.000;2023-04-10T03:42:14;101980.56;;;6.43;100.00
10806;BME280;5455;53.224;6.000;2023-04-10T03:44:41;101969.91;;;6.42;100.00
10806;BME280;5455;53.224;6.000;2023-04-10T03:47:09;101965.25;;;6.42;100.00
10806;BME280;5455;53.224;6.000;2023-04-10T03:49:36;101956.91;;;6.47;100.00
10806;BME280;5455;53.224;6.000;2023-04-10T03:52:06;101960.56;;;6.56;100.00
10806;BME280;5455;53.224;6.000;2023-04-10T03:54:33;101956.63;;;6.62;100.00
10806;BME280;5455;53.224;6.000;2023-04-10T03:57:00;101952.78;;;6.63;100.00
10806;BME280;5455;53.224;6.000;2023-04-10T03:59:30;101952.56;;;6.60;100.00
10806;BME280;5455;53.224;6.000;2023-04-10T04:02:07;101946.56;;;6.58;100.00
10806;BME280;5455;53.224;6.000;2023-04-10T04:04:35;101931.75;;;6.59;100.00
10806;BME280;5455;53.224;6.000;2023-04-10T04:07:34;101925.66;;;6.62;100.00
10806;BME280;5455;53.224;6.000;2023-04-10T04:10:31;101918.75;;;6.64;100.00
10806;BME280;5455;53.224;6.000;2023-04-10T04:13:15;101914.91;;;6.65;100.00
10806;BME280;5455;53.224;6.000;2023-04-10T04:16:05;101912.16;;;6.65;100.00
10806;BME280;5455;53.224;6.000;2023-04-10T04:18:51;101919.06;;;6.63;100.00
10806;BME280;5455;53.224;6.000;2023-04-10T04:21:32;101917.44;;;6.62;100.00
10806;BME280;5455;53.224;6.000;2023-04-10T04:24:37;101906.81;;;6.60;100.00
10806;BME280;5455;53.224;6.000;2023-04-10T04:27:17;101909.00;;;6.58;100.00
10806;BME280;5455;53.224;6.000;2023-04-10T04:30:19;101912.91;;;6.57;100.00
10806;BME280;5455;53.224;6.000;2023-04-10T04:33:06;101907.59;;;6.61;100.00
10806;BME280;5455;53.224;6.000;2023-04-10T04:35:52;101902.00;;;6.66;100.00
10806;BME280;5455;53.224;6.000;2023-04-10T04:38:37;101894.69;;;6.75;100.00
10806;BME280;5455;53.224;6.000;2023-04-10T04:41:24;101892.94;;;6.79;100.00
10806;BME280;5455;53.224;6.000;2023-04-10T04:44:03;101890.91;;;6.85;100.00
10806;BME280;5455;53.224;6.000;2023-04-10T04:46:49;101886.13;;;6.90;100.00
10806;BME280;5455;53.224;6.000;2023-04-10T04:49:51;101885.19;;;6.95;100.00
10806;BME280;5455;53.224;6.000;2023-04-10T04:52:47;101882.44;;;6.95;100.00
10806;BME280;5455;53.224;6.000;2023-04-10T04:55:23;101877.97;;;6.99;100.00
10806;BME280;5455;53.224;6.000;2023-04-10T04:58:09;101875.22;;;6.99;100.00
10806;BME280;5455;53.224;6.000;2023-04-10T05:00:52;101878.78;;;6.99;100.00
10806;BME280;5455;53.224;6.000;2023-04-10T05:03:39;101878.66;;;7.04;100.00
10806;BME280;5455;53.224;6.000;2023-04-10T05:06:45;101877.22;;;7.07;100.00
10806;BME280;5455;53.224;6.000;2023-04-10T05:09:47;101897.44;;;7.11;100.00
10806;BME280;5455;53.224;6.000;2023-04-10T05:12:40;101879.06;;;7.11;100.00
10806;BME280;5455;53.224;6.000;2023-04-10T05:15:20;101884.22;;;7.13;100.00
10806;BME280;5455;53.224;6.000;2023-04-10T05:18:05;101886.34;;;7.16;100.00
10806;BME280;5455;53.224;6.000;2023-04-10T05:20:55;101882.16;;;7.18;100.00
10806;BME280;5455;53.224;6.000;2023-04-10T05:23:40;101879.63;;;7.22;100.00
10806;BME280;5455;53.224;6.000;2023-04-10T05:26:26;101872.69;;;7.25;100.00
10806;BME280;5455;53.224;6.000;2023-04-10T05:29:07;101876.13;;;7.30;100.00
10806;BME280;5455;53.224;6.000;2023-04-10T05:31:54;101869.38;;;7.36;100.00
10806;BME280;5455;53.224;6.000;2023-04-10T05:34:57;101880.44;;;7.45;100.00
10806;BME280;5455;53.224;6.000;2023-04-10T05:37:41;101875.63;;;7.50;100.00
10806;BME280;5455;53.224;6.000;2023-04-10T05:40:31;101882.59;;;7.56;100.00
10806;BME280;5455;53.224;6.000;2023-04-10T05:43:21;101883.59;;;7.60;100.00
10806;BME280;5455;53.224;6.000;2023-04-10T05:46:01;101890.06;;;7.64;100.00
10806;BME280;5455;53.224;6.000;2023-04-10T05:48:49;101882.03;;;7.68;100.00
10806;BME280;5455;53.224;6.000;2023-04-10T05:51:24;101865.75;;;7.71;100.00
10806;BME280;5455;53.224;6.000;2023-04-10T05:54:05;101871.91;;;7.77;100.00
10806;BME280;5455;53.224;6.000;2023-04-10T05:57:01;101868.38;;;7.85;100.00
10806;BME280;5455;53.224;6.000;2023-04-10T05:59:43;101867.94;;;7.92;100.00
10806;BME280;5455;53.224;6.000;2023-04-10T06:02:35;101874.91;;;7.98;100.00
10806;BME280;5455;53.224;6.000;2023-04-10T06:05:06;101865.06;;;8.05;100.00
10806;BME280;5455;53.224;6.000;2023-04-10T06:07:34;101876.44;;;8.12;100.00
10806;BME280;5455;53.224;6.000;2023-04-10T06:10:04;101872.25;;;8.23;100.00
10806;BME280;5455;53.224;6.000;2023-04-10T06:12:34;101863.47;;;8.35;100.00
10806;BME280;5455;53.224;6.000;2023-04-10T06:15:03;101867.34;;;8.43;100.00
10806;BME280;5455;53.224;6.000;2023-04-10T06:17:33;101859.13;;;8.51;100.00
10806;BME280;5455;53.224;6.000;2023-04-10T06:20:04;101857.84;;;8.57;100.00
10806;BME280;5455;53.224;6.000;2023-04-10T06:22:32;101855.25;;;8.61;100.00
10806;BME280;5455;53.224;6.000;2023-04-10T06:24:59;101843.28;;;8.65;100.00
10806;BME280;5455;53.224;6.000;2023-04-10T06:27:27;101834.41;;;8.68;100.00
10806;BME280;5455;53.224;6.000;2023-04-10T06:29:55;101835.22;;;8.77;100.00
10806;BME280;5455;53.224;6.000;2023-04-10T06:32:22;101828.13;;;8.85;100.00
10806;BME280;5455;53.224;6.000;2023-04-10T06:34:49;101831.69;;;8.94;100.00
10806;BME280;5455;53.224;6.000;2023-04-10T06:37:17;101824.53;;;9.02;100.00
10806;BME280;5455;53.224;6.000;2023-04-10T06:39:44;101818.91;;;9.07;100.00
10806;BME280;5455;53.224;6.000;2023-04-10T06:42:11;101821.94;;;9.14;100.00
10806;BME280;5455;53.224;6.000;2023-04-10T06:44:55;101819.50;;;9.21;100.00
10806;BME280;5455;53.224;6.000;2023-04-10T06:47:22;101816.09;;;9.32;100.00
10806;BME280;5455;53.224;6.000;2023-04-10T06:49:49;101821.72;;;9.45;100.00
10806;BME280;5455;53.224;6.000;2023-04-10T06:52:16;101817.31;;;9.61;100.00
10806;BME280;5455;53.224;6.000;2023-04-10T06:54:46;101821.16;;;9.77;100.00
10806;BME280;5455;53.224;6.000;2023-04-10T06:57:13;101813.81;;;9.89;100.00
10806;BME280;5455;53.224;6.000;2023-04-10T06:59:42;101809.88;;;9.99;100.00
10806;BME280;5455;53.224;6.000;2023-04-10T07:02:09;101814.69;;;10.11;100.00
10806;BME280;5455;53.224;6.000;2023-04-10T07:04:36;101805.88;;;10.26;99.70
10806;BME280;5455;53.224;6.000;2023-04-10T07:07:03;101797.69;;;10.38;98.90
10806;BME280;5455;53.224;6.000;2023-04-10T07:09:31;101805.09;;;10.46;96.71
10806;BME280;5455;53.224;6.000;2023-04-10T07:11:58;101787.81;;;10.58;94.29
10806;BME280;5455;53.224;6.000;2023-04-10T07:14:25;101783.00;;;10.75;93.54
10806;BME280;5455;53.224;6.000;2023-04-10T07:16:52;101773.41;;;10.93;93.11
10806;BME280;5455;53.224;6.000;2023-04-10T07:19:19;101765.41;;;11.13;92.58
10806;BME280;5455;53.224;6.000;2023-04-10T07:21:46;101765.72;;;11.32;90.95
10806;BME280;5455;53.224;6.000;2023-04-10T07:24:16;101762.88;;;11.52;90.27
10806;BME280;5455;53.224;6.000;2023-04-10T07:26:44;101755.91;;;11.79;89.96
10806;BME280;5455;53.224;6.000;2023-04-10T07:29:12;101757.75;;;11.99;88.62
10806;BME280;5455;53.224;6.000;2023-04-10T07:31:40;101750.81;;;12.05;88.31
10806;BME280;5455;53.224;6.000;2023-04-10T07:34:07;101765.81;;;12.04;86.74
10806;BME280;5455;53.224;6.000;2023-04-10T07:36:34;101749.13;;;12.01;86.82
10806;BME280;5455;53.224;6.000;2023-04-10T07:39:01;101751.75;;;11.97;86.80
10806;BME280;5455;53.224;6.000;2023-04-10T07:41:28;101747.63;;;12.03;86.01
10806;BME280;5455;53.224;6.000;2023-04-10T07:43:55;101746.69;;;12.11;85.78
10806;BME280;5455;53.224;6.000;2023-04-10T07:46:22;101748.63;;;12.11;84.84
10806;BME280;5455;53.224;6.000;2023-04-10T07:48:49;101749.44;;;12.11;82.54
10806;BME280;5455;53.224;6.000;2023-04-10T07:51:16;101736.66;;;12.07;82.86
10806;BME280;5455;53.224;6.000;2023-04-10T07:53:43;101727.09;;;12.17;81.73
10806;BME280;5455;53.224;6.000;2023-04-10T07:56:18;101725.47;;;12.28;80.15
10806;BME280;5455;53.224;6.000;2023-04-10T07:58:45;101728.09;;;12.36;79.60
10806;BME280;5455;53.224;6.000;2023-04-10T08:01:13;101726.00;;;12.45;79.85
10806;BME280;5455;53.224;6.000;2023-04-10T08:03:41;101722.63;;;12.52;78.74
10806;BME280;5455;53.224;6.000;2023-04-10T08:06:09;101717.59;;;12.69;79.10
10806;BME280;5455;53.224;6.000;2023-04-10T08:08:38;101720.53;;;12.89;79.72
10806;BME280;5455;53.224;6.000;2023-04-10T08:11:21;101705.88;;;13.04;77.30
10806;BME280;5455;53.224;6.000;2023-04-10T08:13:53;101709.03;;;13.02;76.27
10806;BME280;5455;53.224;6.000;2023-04-10T08:16:30;101708.66;;;13.04;74.81
10806;BME280;5455;53.224;6.000;2023-04-10T08:18:59;101709.59;;;13.08;75.06
10806;BME280;5455;53.224;6.000;2023-04-10T08:21:27;101700.31;;;13.16;75.74
10806;BME280;5455;53.224;6.000;2023-04-10T08:23:57;101697.47;;;13.28;75.56
10806;BME280;5455;53.224;6.000;2023-04-10T08:26:25;101694.88;;;13.35;74.01
10806;BME280;5455;53.224;6.000;2023-04-10T08:28:55;101691.06;;;13.40;73.42
10806;BME280;5455;53.224;6.000;2023-04-10T08:31:23;101697.03;;;13.42;73.36
10806;BME280;5455;53.224;6.000;2023-04-10T08:33:51;101687.47;;;13.55;73.48
10806;BME280;5455;53.224;6.000;2023-04-10T08:36:19;101693.38;;;13.69;73.08
10806;BME280;5455;53.224;6.000;2023-04-10T08:38:46;101682.44;;;13.76;72.13
10806;BME280;5455;53.224;6.000;2023-04-10T08:41:16;101681.69;;;13.79;71.93
10806;BME280;5455;53.224;6.000;2023-04-10T08:43:44;101681.41;;;14.00;72.80
10806;BME280;5455;53.224;6.000;2023-04-10T08:46:12;101682.75;;;14.06;72.58
10806;BME280;5455;53.224;6.000;2023-04-10T08:51:21;101675.81;;;14.15;70.63
10806;BME280;5455;53.224;6.000;2023-04-10T08:53:57;101669.41;;;14.30;70.06
10806;BME280;5455;53.224;6.000;2023-04-10T08:56:25;101663.72;;;14.43;70.11
10806;BME280;5455;53.224;6.000;2023-04-10T08:58:53;101650.31;;;14.45;68.65
10806;BME280;5455;53.224;6.000;2023-04-10T09:01:21;101647.97;;;14.47;68.19
10806;BME280;5455;53.224;6.000;2023-04-10T09:03:49;101656.38;;;14.15;64.61
10806;BME280;5455;53.224;6.000;2023-04-10T09:06:17;101648.19;;;14.03;65.88
10806;BME280;5455;53.224;6.000;2023-04-10T09:08:44;101652.88;;;14.18;67.67
10806;BME280;5455;53.224;6.000;2023-04-10T09:11:11;101652.63;;;14.23;66.47
10806;BME280;5455;53.224;6.000;2023-04-10T09:13:41;101647.69;;;14.32;67.33
10806;BME280;5455;53.224;6.000;2023-04-10T09:16:13;101653.25;;;14.32;65.58
10806;BME280;5455;53.224;6.000;2023-04-10T09:18:50;101639.88;;;14.38;65.92
10806;BME280;5455;53.224;6.000;2023-04-10T09:21:19;101637.22;;;14.45;64.88
10806;BME280;5455;53.224;6.000;2023-04-10T09:23:47;101637.94;;;14.42;65.56
10806;BME280;5455;53.224;6.000;2023-04-10T09:26:28;101632.94;;;14.48;66.30
10806;BME280;5455;53.224;6.000;2023-04-10T09:29:00;101621.59;;;14.56;65.33
10806;BME280;5455;53.224;6.000;2023-04-10T09:31:34;101621.59;;;14.56;64.47
10806;BME280;5455;53.224;6.000;2023-04-10T09:34:09;101610.13;;;14.58;64.03
10806;BME280;5455;53.224;6.000;2023-04-10T09:36:37;101613.47;;;14.67;63.96
10806;BME280;5455;53.224;6.000;2023-04-10T09:39:04;101603.97;;;14.90;64.49
10806;BME280;5455;53.224;6.000;2023-04-10T09:41:31;101594.78;;;15.09;63.89
10806;BME280;5455;53.224;6.000;2023-04-10T09:46:33;101571.66;;;15.02;63.23
10806;BME280;5455;53.224;6.000;2023-04-10T09:49:01;101563.91;;;15.14;63.32
10806;BME280;5455;53.224;6.000;2023-04-10T09:51:32;101561.19;;;15.18;62.46
10806;BME280;5455;53.224;6.000;2023-04-10T09:54:00;101569.59;;;15.21;62.41
10806;BME280;5455;53.224;6.000;2023-04-10T09:56:35;101555.03;;;15.05;62.01
10806;BME280;5455;53.224;6.000;2023-04-10T09:59:02;101566.19;;;15.09;62.33
10806;BME280;5455;53.224;6.000;2023-04-10T10:01:32;101553.59;;;15.15;62.19
10806;BME280;5455;53.224;6.000;2023-04-10T10:04:02;101549.91;;;15.07;61.84
10806;BME280;5455;53.224;6.000;2023-04-10T10:06:33;101538.53;;;14.89;61.92
10806;BME280;5455;53.224;6.000;2023-04-10T10:09:03;101528.50;;;14.85;61.83
10806;BME280;5455;53.224;6.000;2023-04-10T10:11:32;101527.72;;;14.84;61.97
10806;BME280;5455;53.224;6.000;2023-04-10T10:14:10;101523.56;;;14.98;62.33
10806;BME280;5455;53.224;6.000;2023-04-10T10:16:44;101525.59;;;15.01;61.01
10806;BME280;5455;53.224;6.000;2023-04-10T10:19:29;101520.41;;;14.99;61.21
10806;BME280;5455;53.224;6.000;2023-04-10T10:21:59;101519.44;;;15.11;62.25
10806;BME280;5455;53.224;6.000;2023-04-10T10:24:28;101514.19;;;15.32;62.54
10806;BME280;5455;53.224;6.000;2023-04-10T10:26:58;101506.06;;;15.46;61.23
10806;BME280;5455;53.224;6.000;2023-04-10T10:29:26;101506.06;;;15.46;61.82
10806;BME280;5455;53.224;6.000;2023-04-10T10:31:59;101498.38;;;15.66;61.03
10806;BME280;5455;53.224;6.000;2023-04-10T10:34:29;101487.13;;;15.55;60.30
10806;BME280;5455;53.224;6.000;2023-04-10T10:36:57;101490.81;;;15.36;60.11
10806;BME280;5455;53.224;6.000;2023-04-10T10:39:33;101492.44;;;15.37;60.25
10806;BME280;5455;53.224;6.000;2023-04-10T10:42:07;101487.47;;;15.50;59.83
10806;BME280;5455;53.224;6.000;2023-04-10T10:44:48;101491.59;;;15.63;58.84
10806;BME280;5455;53.224;6.000;2023-04-10T10:47:23;101489.63;;;15.64;59.31
10806;BME280;5455;53.224;6.000;2023-04-10T10:49:51;101482.97;;;15.72;59.44
10806;BME280;5455;53.224;6.000;2023-04-10T10:52:39;101473.88;;;15.75;58.77
10806;BME280;5455;53.224;6.000;2023-04-10T10:58:04;101460.31;;;16.03;58.38
10806;BME280;5455;53.224;6.000;2023-04-10T11:06:05;101443.97;;;15.65;58.60
10806;BME280;5455;53.224;6.000;2023-04-10T11:11:06;101423.75;;;15.68;58.52
10806;BME280;5455;53.224;6.000;2023-04-10T11:13:36;101418.34;;;15.49;58.10
10806;BME280;5455;53.224;6.000;2023-04-10T11:16:06;101413.34;;;15.61;58.05
10806;BME280;5455;53.224;6.000;2023-04-10T11:21:31;101390.72;;;15.63;58.00
10806;BME280;5455;53.224;6.000;2023-04-10T11:24:01;101394.75;;;15.69;58.46
10806;BME280;5455;53.224;6.000;2023-04-10T11:26:35;101387.50;;;15.94;57.66
10806;BME280;5455;53.224;6.000;2023-04-10T11:31:45;101367.97;;;16.34;57.70
10806;BME280;5455;53.224;6.000;2023-04-10T11:34:12;101355.66;;;16.35;56.92
10806;BME280;5455;53.224;6.000;2023-04-10T11:36:43;101354.81;;;16.31;56.91
10806;BME280;5455;53.224;6.000;2023-04-10T11:39:12;101350.97;;;16.46;57.52
10806;BME280;5455;53.224;6.000;2023-04-10T11:41:41;101350.47;;;16.30;55.98
10806;BME280;5455;53.224;6.000;2023-04-10T11:44:16;101342.91;;;16.34;56.10
10806;BME280;5455;53.224;6.000;2023-04-10T11:46:46;101338.47;;;16.26;55.01
10806;BME280;5455;53.224;6.000;2023-04-10T11:49:21;101334.22;;;16.39;55.81
10806;BME280;5455;53.224;6.000;2023-04-10T11:51:50;101323.13;;;16.46;54.61
10806;BME280;5455;53.224;6.000;2023-04-10T11:54:23;101326.84;;;16.65;55.55
10806;BME280;5455;53.224;6.000;2023-04-10T11:57:05;101320.50;;;16.68;54.41
10806;BME280;5455;53.224;6.000;2023-04-10T11:59:33;101316.50;;;16.65;53.73
10806;BME280;5455;53.224;6.000;2023-04-10T12:02:13;101308.56;;;16.64;54.25
10806;BME280;5455;53.224;6.000;2023-04-10T12:04:42;101298.09;;;16.50;53.83
10806;BME280;5455;53.224;6.000;2023-04-10T12:07:10;101287.41;;;16.56;54.96
10806;BME280;5455;53.224;6.000;2023-04-10T12:09:37;101277.03;;;16.52;55.77
10806;BME280;5455;53.224;6.000;2023-04-10T12:12:06;101279.03;;;16.52;55.36
10806;BME280;5455;53.224;6.000;2023-04-10T12:14:34;101279.47;;;16.54;55.05
10806;BME280;5455;53.224;6.000;2023-04-10T12:17:03;101280.13;;;16.40;55.95
10806;BME280;5455;53.224;6.000;2023-04-10T12:19:31;101271.50;;;16.56;56.27
10806;BME280;5455;53.224;6.000;2023-04-10T12:21:59;101280.63;;;16.53;55.94
10806;BME280;5455;53.224;6.000;2023-04-10T12:24:50;101264.28;;;16.48;56.28
10806;BME280;5455;53.224;6.000;2023-04-10T12:27:18;101260.59;;;16.30;56.06
10806;BME280;5455;53.224;6.000;2023-04-10T12:29:47;101252.91;;;16.09;56.43
10806;BME280;5455;53.224;6.000;2023-04-10T12:32:14;101248.41;;;15.94;56.55
10806;BME280;5455;53.224;6.000;2023-04-10T12:34:48;101246.75;;;15.82;57.43
10806;BME280;5455;53.224;6.000;2023-04-10T12:37:16;101246.78;;;15.86;57.83
10806;BME280;5455;53.224;6.000;2023-04-10T12:39:43;101253.53;;;15.88;57.52
10806;BME280;5455;53.224;6.000;2023-04-10T12:42:17;101243.88;;;15.75;58.69
10806;BME280;5455;53.224;6.000;2023-04-10T12:44:52;101242.78;;;15.87;58.98
10806;BME280;5455;53.224;6.000;2023-04-10T12:47:21;101236.78;;;15.81;58.90
10806;BME280;5455;53.224;6.000;2023-04-10T12:50:09;101220.19;;;15.92;59.39
10806;BME280;5455;53.224;6.000;2023-04-10T12:52:38;101208.19;;;15.81;59.66
10806;BME280;5455;53.224;6.000;2023-04-10T12:55:19;101201.28;;;15.61;60.79
10806;BME280;5455;53.224;6.000;2023-04-10T12:57:49;101205.50;;;15.48;61.09
10806;BME280;5455;53.224;6.000;2023-04-10T13:00:18;101189.16;;;15.42;61.77
10806;BME280;5455;53.224;6.000;2023-04-10T13:02:46;101180.00;;;15.38;62.42
10806;BME280;5455;53.224;6.000;2023-04-10T13:05:14;101189.94;;;15.39;61.90
10806;BME280;5455;53.224;6.000;2023-04-10T13:07:41;101178.03;;;15.39;62.29
10806;BME280;5455;53.224;6.000;2023-04-10T13:10:08;101165.34;;;15.38;62.38
10806;BME280;5455;53.224;6.000;2023-04-10T13:12:36;101151.78;;;15.33;62.35
10806;BME280;5455;53.224;6.000;2023-04-10T13:15:05;101151.69;;;15.22;63.04
10806;BME280;5455;53.224;6.000;2023-04-10T13:17:33;101141.75;;;15.21;63.65
10806;BME280;5455;53.224;6.000;2023-04-10T13:20:01;101123.94;;;15.26;63.99
10806;BME280;5455;53.224;6.000;2023-04-10T13:22:28;101117.16;;;15.20;64.60
10806;BME280;5455;53.224;6.000;2023-04-10T13:24:55;101111.97;;;15.18;64.31
10806;BME280;5455;53.224;6.000;2023-04-10T13:27:22;101105.59;;;15.18;64.34
10806;BME280;5455;53.224;6.000;2023-04-10T13:29:49;101107.19;;;15.19;64.90
10806;BME280;5455;53.224;6.000;2023-04-10T13:32:16;101093.69;;;15.14;65.21
10806;BME280;5455;53.224;6.000;2023-04-10T13:34:43;101084.88;;;15.08;65.95
10806;BME280;5455;53.224;6.000;2023-04-10T13:37:09;101075.78;;;15.11;66.11
10806;BME280;5455;53.224;6.000;2023-04-10T13:39:39;101072.53;;;15.02;66.13
10806;BME280;5455;53.224;6.000;2023-04-10T13:42:05;101054.31;;;15.05;66.41
10806;BME280;5455;53.224;6.000;2023-04-10T13:44:32;101056.28;;;15.04;66.54
10806;BME280;5455;53.224;6.000;2023-04-10T13:47:00;101048.75;;;15.05;67.25
10806;BME280;5455;53.224;6.000;2023-04-10T13:49:30;101051.88;;;15.00;67.20
10806;BME280;5455;53.224;6.000;2023-04-10T13:51:58;101044.72;;;14.95;67.31
10806;BME280;5455;53.224;6.000;2023-04-10T13:54:25;101038.72;;;14.89;68.13
10806;BME280;5455;53.224;6.000;2023-04-10T13:56:52;101032.28;;;14.82;68.24
10806;BME280;5455;53.224;6.000;2023-04-10T13:59:20;101027.09;;;14.77;68.09
10806;BME280;5455;53.224;6.000;2023-04-10T14:01:47;101028.66;;;14.74;69.03
10806;BME280;5455;53.224;6.000;2023-04-10T14:04:18;101032.16;;;14.68;69.03